Terminal Aerodrome Forecast
Issued by NWS Cleveland, OH

Home | Current Version | Previous Version | Text Only | Print | Product List | Glossary On
Versions: 1 2 3 4 5 6 7 8 9 10 11 12 13 14 15
000
FTUS41 KCLE 211739
TAFCAK
TAF
KCAK 211739Z 2118/2218 36005KT P6SM SCT045 BKN200
      TEMPO 2118/2119 BKN045
     FM220200 VRB03KT P6SM FEW200
     FM220800 VRB03KT 5SM BR SCT100 BKN200
     FM221400 17005KT 4SM SHRA VCTS OVC025CB=

USA.gov is the U.S. government's official web portal to all federal, state and local government web resources and services.